sensor_id;sensor_type;location;lat;lon;timestamp;temperature;humidity
3208;DHT22;1616;52.394;9.756;2022-10-22T00:01:17;14.20;10.90
3208;DHT22;1616;52.394;9.756;2022-10-22T00:03:44;14.20;10.90
3208;DHT22;1616;52.394;9.756;2022-10-22T00:06:10;14.20;11.10
3208;DHT22;1616;52.394;9.756;2022-10-22T00:08:36;14.10;11.20
3208;DHT22;1616;52.394;9.756;2022-10-22T00:11:10;14.10;11.40
3208;DHT22;1616;52.394;9.756;2022-10-22T00:13:37;14.10;11.90
3208;DHT22;1616;52.394;9.756;2022-10-22T00:16:03;14.10;12.20
3208;DHT22;1616;52.394;9.756;2022-10-22T00:18:29;14.10;12.40
3208;DHT22;1616;52.394;9.756;2022-10-22T00:20:56;14.10;12.40
3208;DHT22;1616;52.394;9.756;2022-10-22T00:23:21;14.10;12.40
3208;DHT22;1616;52.394;9.756;2022-10-22T00:25:47;14.10;12.30
3208;DHT22;1616;52.394;9.756;2022-10-22T00:28:13;14.10;12.30
3208;DHT22;1616;52.394;9.756;2022-10-22T00:30:39;14.10;12.30
3208;DHT22;1616;52.394;9.756;2022-10-22T00:33:05;14.10;12.30
3208;DHT22;1616;52.394;9.756;2022-10-22T00:35:31;14.10;12.40
3208;DHT22;1616;52.394;9.756;2022-10-22T00:37:57;14.10;12.50
3208;DHT22;1616;52.394;9.756;2022-10-22T00:40:23;14.10;12.60
3208;DHT22;1616;52.394;9.756;2022-10-22T00:42:49;14.10;12.60
3208;DHT22;1616;52.394;9.756;2022-10-22T00:45:17;14.10;12.70
3208;DHT22;1616;52.394;9.756;2022-10-22T00:47:49;14.10;12.60
3208;DHT22;1616;52.394;9.756;2022-10-22T00:50:37;14.10;12.50
3208;DHT22;1616;52.394;9.756;2022-10-22T00:53:07;14.10;12.20
3208;DHT22;1616;52.394;9.756;2022-10-22T00:55:35;14.10;12.20
3208;DHT22;1616;52.394;9.756;2022-10-22T00:58:01;14.10;12.20
3208;DHT22;1616;52.394;9.756;2022-10-22T01:00:28;14.10;12.30
3208;DHT22;1616;52.394;9.756;2022-10-22T01:02:54;14.10;12.50
3208;DHT22;1616;52.394;9.756;2022-10-22T01:05:20;14.10;12.60
3208;DHT22;1616;52.394;9.756;2022-10-22T01:07:48;14.10;12.50
3208;DHT22;1616;52.394;9.756;2022-10-22T01:18:50;14.00;12.10
3208;DHT22;1616;52.394;9.756;2022-10-22T01:21:35;14.00;12.10
3208;DHT22;1616;52.394;9.756;2022-10-22T01:24:22;14.00;12.20
3208;DHT22;1616;52.394;9.756;2022-10-22T01:29:33;14.00;12.00
3208;DHT22;1616;52.394;9.756;2022-10-22T01:32:06;13.90;11.90
3208;DHT22;1616;52.394;9.756;2022-10-22T01:34:33;13.90;12.20
3208;DHT22;1616;52.394;9.756;2022-10-22T01:36:59;13.90;12.10
3208;DHT22;1616;52.394;9.756;2022-10-22T01:39:28;13.90;12.20
3208;DHT22;1616;52.394;9.756;2022-10-22T01:41:55;13.90;12.20
3208;DHT22;1616;52.394;9.756;2022-10-22T01:44:32;13.90;12.40
3208;DHT22;1616;52.394;9.756;2022-10-22T01:47:13;13.90;12.60
3208;DHT22;1616;52.394;9.756;2022-10-22T01:58:18;13.90;12.70
3208;DHT22;1616;52.394;9.756;2022-10-22T02:00:53;13.90;12.80
3208;DHT22;1616;52.394;9.756;2022-10-22T02:03:28;13.90;12.70
3208;DHT22;1616;52.394;9.756;2022-10-22T02:05:58;13.90;12.60
3208;DHT22;1616;52.394;9.756;2022-10-22T02:08:31;13.90;12.50
3208;DHT22;1616;52.394;9.756;2022-10-22T02:10:58;13.90;12.50
3208;DHT22;1616;52.394;9.756;2022-10-22T02:13:32;13.90;12.60
3208;DHT22;1616;52.394;9.756;2022-10-22T02:16:00;13.90;12.60
3208;DHT22;1616;52.394;9.756;2022-10-22T02:18:29;13.90;12.70
3208;DHT22;1616;52.394;9.756;2022-10-22T02:20:58;13.90;12.60
3208;DHT22;1616;52.394;9.756;2022-10-22T02:23:25;13.90;12.80
3208;DHT22;1616;52.394;9.756;2022-10-22T02:26:01;13.90;12.80
3208;DHT22;1616;52.394;9.756;2022-10-22T02:28:37;13.90;12.90
3208;DHT22;1616;52.394;9.756;2022-10-22T02:31:22;13.90;13.00
3208;DHT22;1616;52.394;9.756;2022-10-22T02:33:52;14.00;13.00
3208;DHT22;1616;52.394;9.756;2022-10-22T02:36:19;14.00;13.00
3208;DHT22;1616;52.394;9.756;2022-10-22T02:38:46;13.90;12.80
3208;DHT22;1616;52.394;9.756;2022-10-22T02:41:14;13.90;12.80
3208;DHT22;1616;52.394;9.756;2022-10-22T02:43:42;14.00;12.70
3208;DHT22;1616;52.394;9.756;2022-10-22T02:46:10;13.90;12.70
3208;DHT22;1616;52.394;9.756;2022-10-22T02:48:36;13.90;12.70
3208;DHT22;1616;52.394;9.756;2022-10-22T02:51:02;14.00;12.70
3208;DHT22;1616;52.394;9.756;2022-10-22T02:53:27;14.00;12.80
3208;DHT22;1616;52.394;9.756;2022-10-22T02:55:53;14.00;12.80
3208;DHT22;1616;52.394;9.756;2022-10-22T02:58:19;14.00;12.80
3208;DHT22;1616;52.394;9.756;2022-10-22T03:00:45;13.90;12.70
3208;DHT22;1616;52.394;9.756;2022-10-22T03:03:10;13.90;12.60
3208;DHT22;1616;52.394;9.756;2022-10-22T03:05:36;13.90;12.70
3208;DHT22;1616;52.394;9.756;2022-10-22T03:08:02;13.90;12.80
3208;DHT22;1616;52.394;9.756;2022-10-22T03:10:28;13.90;12.80
3208;DHT22;1616;52.394;9.756;2022-10-22T03:12:53;13.90;12.90
3208;DHT22;1616;52.394;9.756;2022-10-22T03:15:19;13.90;12.90
3208;DHT22;1616;52.394;9.756;2022-10-22T03:17:45;13.90;12.80
3208;DHT22;1616;52.394;9.756;2022-10-22T03:20:10;13.90;12.90
3208;DHT22;1616;52.394;9.756;2022-10-22T03:22:38;14.00;12.90
3208;DHT22;1616;52.394;9.756;2022-10-22T03:25:09;13.90;12.80
3208;DHT22;1616;52.394;9.756;2022-10-22T03:27:37;13.90;12.70
3208;DHT22;1616;52.394;9.756;2022-10-22T03:30:05;13.90;12.60
3208;DHT22;1616;52.394;9.756;2022-10-22T03:32:31;13.90;12.60
3208;DHT22;1616;52.394;9.756;2022-10-22T03:34:57;13.90;12.50
3208;DHT22;1616;52.394;9.756;2022-10-22T03:37:23;13.90;12.60
3208;DHT22;1616;52.394;9.756;2022-10-22T03:39:50;13.90;12.50
3208;DHT22;1616;52.394;9.756;2022-10-22T03:42:16;13.90;12.60
3208;DHT22;1616;52.394;9.756;2022-10-22T03:44:42;13.90;12.70
3208;DHT22;1616;52.394;9.756;2022-10-22T03:47:08;13.90;12.70
3208;DHT22;1616;52.394;9.756;2022-10-22T03:49:34;13.90;12.60
3208;DHT22;1616;52.394;9.756;2022-10-22T03:52:08;13.90;12.50
3208;DHT22;1616;52.394;9.756;2022-10-22T03:54:35;13.90;12.50
3208;DHT22;1616;52.394;9.756;2022-10-22T03:57:03;13.80;12.40
3208;DHT22;1616;52.394;9.756;2022-10-22T03:59:34;13.80;12.40
3208;DHT22;1616;52.394;9.756;2022-10-22T04:01:59;13.90;12.60
3208;DHT22;1616;52.394;9.756;2022-10-22T04:04:26;13.80;12.60
3208;DHT22;1616;52.394;9.756;2022-10-22T04:06:52;13.80;12.60
3208;DHT22;1616;52.394;9.756;2022-10-22T04:09:17;13.90;12.90
3208;DHT22;1616;52.394;9.756;2022-10-22T04:11:43;13.90;12.90
3208;DHT22;1616;52.394;9.756;2022-10-22T04:14:09;13.90;13.10
3208;DHT22;1616;52.394;9.756;2022-10-22T04:16:38;13.90;13.10
3208;DHT22;1616;52.394;9.756;2022-10-22T04:19:04;13.90;13.00
3208;DHT22;1616;52.394;9.756;2022-10-22T04:21:30;13.90;12.90
3208;DHT22;1616;52.394;9.756;2022-10-22T04:23:56;13.90;13.00
3208;DHT22;1616;52.394;9.756;2022-10-22T04:26:22;13.90;12.90
3208;DHT22;1616;52.394;9.756;2022-10-22T04:28:50;13.90;12.90
3208;DHT22;1616;52.394;9.756;2022-10-22T04:31:21;13.90;12.90
3208;DHT22;1616;52.394;9.756;2022-10-22T04:33:54;13.90;12.90
3208;DHT22;1616;52.394;9.756;2022-10-22T04:36:21;13.90;12.90
3208;DHT22;1616;52.394;9.756;2022-10-22T04:38:51;13.90;12.80
3208;DHT22;1616;52.394;9.756;2022-10-22T04:41:21;13.90;12.80
3208;DHT22;1616;52.394;9.756;2022-10-22T04:43:48;14.00;12.90
3208;DHT22;1616;52.394;9.756;2022-10-22T04:46:15;14.00;13.00
3208;DHT22;1616;52.394;9.756;2022-10-22T04:48:43;14.00;13.00
3208;DHT22;1616;52.394;9.756;2022-10-22T04:51:16;14.00;13.20
3208;DHT22;1616;52.394;9.756;2022-10-22T04:53:42;14.00;13.20
3208;DHT22;1616;52.394;9.756;2022-10-22T04:56:12;14.00;13.30
3208;DHT22;1616;52.394;9.756;2022-10-22T04:58:41;14.00;13.30
3208;DHT22;1616;52.394;9.756;2022-10-22T05:01:12;14.00;13.10
3208;DHT22;1616;52.394;9.756;2022-10-22T05:03:38;14.00;13.00
3208;DHT22;1616;52.394;9.756;2022-10-22T05:06:04;14.00;13.00
3208;DHT22;1616;52.394;9.756;2022-10-22T05:08:30;14.00;12.70
3208;DHT22;1616;52.394;9.756;2022-10-22T05:10:56;14.00;12.60
3208;DHT22;1616;52.394;9.756;2022-10-22T05:13:22;14.00;12.40
3208;DHT22;1616;52.394;9.756;2022-10-22T05:15:48;14.00;12.40
3208;DHT22;1616;52.394;9.756;2022-10-22T05:18:13;14.00;12.40
3208;DHT22;1616;52.394;9.756;2022-10-22T05:20:42;14.00;12.40
3208;DHT22;1616;52.394;9.756;2022-10-22T05:23:07;14.00;12.20
3208;DHT22;1616;52.394;9.756;2022-10-22T05:25:39;14.00;12.20
3208;DHT22;1616;52.394;9.756;2022-10-22T05:28:04;14.00;12.00
3208;DHT22;1616;52.394;9.756;2022-10-22T05:30:30;14.00;12.00
3208;DHT22;1616;52.394;9.756;2022-10-22T05:32:56;14.00;12.00
3208;DHT22;1616;52.394;9.756;2022-10-22T05:35:21;13.90;12.00
3208;DHT22;1616;52.394;9.756;2022-10-22T05:37:47;13.90;11.90
3208;DHT22;1616;52.394;9.756;2022-10-22T05:40:13;13.90;11.90
3208;DHT22;1616;52.394;9.756;2022-10-22T05:42:39;13.90;11.90
3208;DHT22;1616;52.394;9.756;2022-10-22T05:45:05;13.80;11.90
3208;DHT22;1616;52.394;9.756;2022-10-22T05:47:31;13.80;11.80
3208;DHT22;1616;52.394;9.756;2022-10-22T05:49:56;13.80;12.00
3208;DHT22;1616;52.394;9.756;2022-10-22T05:52:23;13.80;12.10
3208;DHT22;1616;52.394;9.756;2022-10-22T05:54:49;13.80;12.10
3208;DHT22;1616;52.394;9.756;2022-10-22T05:57:15;13.80;12.10
3208;DHT22;1616;52.394;9.756;2022-10-22T05:59:40;13.80;12.20
3208;DHT22;1616;52.394;9.756;2022-10-22T06:02:08;13.70;12.20
3208;DHT22;1616;52.394;9.756;2022-10-22T06:04:34;13.70;12.20
3208;DHT22;1616;52.394;9.756;2022-10-22T06:07:01;13.70;12.40
3208;DHT22;1616;52.394;9.756;2022-10-22T06:09:34;13.70;12.50
3208;DHT22;1616;52.394;9.756;2022-10-22T06:12:01;13.70;12.50
3208;DHT22;1616;52.394;9.756;2022-10-22T06:14:27;13.70;12.50
3208;DHT22;1616;52.394;9.756;2022-10-22T06:16:54;13.70;12.60
3208;DHT22;1616;52.394;9.756;2022-10-22T06:19:22;13.70;12.40
3208;DHT22;1616;52.394;9.756;2022-10-22T06:21:48;13.70;12.40
3208;DHT22;1616;52.394;9.756;2022-10-22T06:24:14;13.70;12.40
3208;DHT22;1616;52.394;9.756;2022-10-22T06:26:40;13.70;12.50
3208;DHT22;1616;52.394;9.756;2022-10-22T06:29:07;13.70;13.00
3208;DHT22;1616;52.394;9.756;2022-10-22T06:31:33;13.80;14.10
3208;DHT22;1616;52.394;9.756;2022-10-22T06:34:07;13.90;14.20
3208;DHT22;1616;52.394;9.756;2022-10-22T06:36:35;14.00;14.30
3208;DHT22;1616;52.394;9.756;2022-10-22T06:39:01;14.10;14.30
3208;DHT22;1616;52.394;9.756;2022-10-22T06:41:27;14.20;14.40
3208;DHT22;1616;52.394;9.756;2022-10-22T06:43:53;14.30;14.50
3208;DHT22;1616;52.394;9.756;2022-10-22T06:46:20;14.40;14.50
3208;DHT22;1616;52.394;9.756;2022-10-22T06:48:51;14.50;14.20
3208;DHT22;1616;52.394;9.756;2022-10-22T06:51:18;14.50;13.80
3208;DHT22;1616;52.394;9.756;2022-10-22T06:53:44;14.60;13.40
3208;DHT22;1616;52.394;9.756;2022-10-22T06:56:12;14.60;13.60
3208;DHT22;1616;52.394;9.756;2022-10-22T06:58:38;14.80;14.40
3208;DHT22;1616;52.394;9.756;2022-10-22T07:01:07;14.80;13.10
3208;DHT22;1616;52.394;9.756;2022-10-22T07:03:33;14.80;12.10
3208;DHT22;1616;52.394;9.756;2022-10-22T07:06:01;14.80;11.50
3208;DHT22;1616;52.394;9.756;2022-10-22T07:08:27;14.70;11.40
3208;DHT22;1616;52.394;9.756;2022-10-22T07:10:54;14.70;11.60
3208;DHT22;1616;52.394;9.756;2022-10-22T07:13:21;14.70;11.80
3208;DHT22;1616;52.394;9.756;2022-10-22T07:15:53;14.70;12.10
3208;DHT22;1616;52.394;9.756;2022-10-22T07:18:20;14.70;12.30
3208;DHT22;1616;52.394;9.756;2022-10-22T07:20:47;14.70;12.60
3208;DHT22;1616;52.394;9.756;2022-10-22T07:23:13;14.80;13.10
3208;DHT22;1616;52.394;9.756;2022-10-22T07:25:40;14.90;14.90
3208;DHT22;1616;52.394;9.756;2022-10-22T07:28:06;15.10;19.90
3208;DHT22;1616;52.394;9.756;2022-10-22T07:30:33;15.70;25.30
3208;DHT22;1616;52.394;9.756;2022-10-22T07:32:58;16.10;23.20
3208;DHT22;1616;52.394;9.756;2022-10-22T07:35:24;16.60;24.60
3208;DHT22;1616;52.394;9.756;2022-10-22T07:37:51;17.20;26.00
3208;DHT22;1616;52.394;9.756;2022-10-22T07:40:17;17.90;26.40
3208;DHT22;1616;52.394;9.756;2022-10-22T07:42:42;18.60;24.90
3208;DHT22;1616;52.394;9.756;2022-10-22T07:45:08;19.00;18.50
3208;DHT22;1616;52.394;9.756;2022-10-22T07:47:34;19.30;13.90
3208;DHT22;1616;52.394;9.756;2022-10-22T07:50:00;19.50;15.70
3208;DHT22;1616;52.394;9.756;2022-10-22T07:52:26;20.10;19.70
3208;DHT22;1616;52.394;9.756;2022-10-22T07:54:52;20.90;18.90
3208;DHT22;1616;52.394;9.756;2022-10-22T07:57:17;21.50;19.30
3208;DHT22;1616;52.394;9.756;2022-10-22T07:59:43;22.40;19.90
3208;DHT22;1616;52.394;9.756;2022-10-22T08:02:11;23.00;16.40
3208;DHT22;1616;52.394;9.756;2022-10-22T08:04:37;23.70;13.00
3208;DHT22;1616;52.394;9.756;2022-10-22T08:07:03;24.30;9.80
3208;DHT22;1616;52.394;9.756;2022-10-22T08:09:29;24.70;5.60
3208;DHT22;1616;52.394;9.756;2022-10-22T08:11:55;25.10;1.80
3208;DHT22;1616;52.394;9.756;2022-10-22T08:14:20;25.50;1.00
3208;DHT22;1616;52.394;9.756;2022-10-22T08:16:46;25.80;1.00
3208;DHT22;1616;52.394;9.756;2022-10-22T08:19:13;26.00;1.00
3208;DHT22;1616;52.394;9.756;2022-10-22T08:21:43;26.10;1.00
3208;DHT22;1616;52.394;9.756;2022-10-22T08:24:09;26.10;1.00
3208;DHT22;1616;52.394;9.756;2022-10-22T08:26:35;26.30;1.00
3208;DHT22;1616;52.394;9.756;2022-10-22T08:29:00;26.40;1.00
3208;DHT22;1616;52.394;9.756;2022-10-22T08:31:26;26.70;1.00
3208;DHT22;1616;52.394;9.756;2022-10-22T08:33:52;26.90;1.00
3208;DHT22;1616;52.394;9.756;2022-10-22T08:36:17;27.20;1.00
3208;DHT22;1616;52.394;9.756;2022-10-22T08:38:43;27.40;1.00
3208;DHT22;1616;52.394;9.756;2022-10-22T08:41:16;27.70;1.00
3208;DHT22;1616;52.394;9.756;2022-10-22T08:49:23;28.50;1.00
3208;DHT22;1616;52.394;9.756;2022-10-22T08:51:50;28.70;1.00
3208;DHT22;1616;52.394;9.756;2022-10-22T08:57:23;28.90;1.00
3208;DHT22;1616;52.394;9.756;2022-10-22T09:02:39;29.40;1.00
3208;DHT22;1616;52.394;9.756;2022-10-22T09:07:43;29.60;1.00
3208;DHT22;1616;52.394;9.756;2022-10-22T09:10:16;29.60;1.00
3208;DHT22;1616;52.394;9.756;2022-10-22T09:12:42;29.70;1.00
3208;DHT22;1616;52.394;9.756;2022-10-22T09:15:12;29.80;1.00
3208;DHT22;1616;52.394;9.756;2022-10-22T09:17:57;29.90;1.00
3208;DHT22;1616;52.394;9.756;2022-10-22T09:20:30;30.00;1.00
3208;DHT22;1616;52.394;9.756;2022-10-22T09:23:31;30.20;1.00
3208;DHT22;1616;52.394;9.756;2022-10-22T09:26:01;30.40;1.00
3208;DHT22;1616;52.394;9.756;2022-10-22T09:28:28;30.70;1.00
3208;DHT22;1616;52.394;9.756;2022-10-22T09:30:54;30.90;1.00
3208;DHT22;1616;52.394;9.756;2022-10-22T09:33:27;31.00;1.00
3208;DHT22;1616;52.394;9.756;2022-10-22T09:35:54;31.10;1.00
3208;DHT22;1616;52.394;9.756;2022-10-22T09:38:26;31.20;1.00
3208;DHT22;1616;52.394;9.756;2022-10-22T09:40:54;31.20;1.00
3208;DHT22;1616;52.394;9.756;2022-10-22T09:43:20;31.20;1.00
3208;DHT22;1616;52.394;9.756;2022-10-22T09:45:48;31.00;1.00
3208;DHT22;1616;52.394;9.756;2022-10-22T09:48:40;30.80;1.00
3208;DHT22;1616;52.394;9.756;2022-10-22T09:51:18;30.80;1.00
3208;DHT22;1616;52.394;9.756;2022-10-22T09:53:58;30.80;1.00
3208;DHT22;1616;52.394;9.756;2022-10-22T09:56:27;31.00;1.00
3208;DHT22;1616;52.394;9.756;2022-10-22T09:58:56;31.00;1.00
3208;DHT22;1616;52.394;9.756;2022-10-22T10:01:35;31.10;1.00
3208;DHT22;1616;52.394;9.756;2022-10-22T10:04:08;31.20;1.00
3208;DHT22;1616;52.394;9.756;2022-10-22T10:06:35;31.00;1.00
3208;DHT22;1616;52.394;9.756;2022-10-22T10:09:18;30.40;1.00
3208;DHT22;1616;52.394;9.756;2022-10-22T10:12:10;29.90;1.00
3208;DHT22;1616;52.394;9.756;2022-10-22T10:14:48;29.40;1.00
3208;DHT22;1616;52.394;9.756;2022-10-22T10:17:30;29.20;1.00
3208;DHT22;1616;52.394;9.756;2022-10-22T10:22:40;29.10;1.00
3208;DHT22;1616;52.394;9.756;2022-10-22T10:25:30;29.00;1.00
3208;DHT22;1616;52.394;9.756;2022-10-22T10:33:50;29.30;1.00
3208;DHT22;1616;52.394;9.756;2022-10-22T10:36:28;29.60;1.00
3208;DHT22;1616;52.394;9.756;2022-10-22T10:39:03;29.90;1.00
3208;DHT22;1616;52.394;9.756;2022-10-22T10:41:54;30.20;1.00
3208;DHT22;1616;52.394;9.756;2022-10-22T10:47:23;30.00;1.00
3208;DHT22;1616;52.394;9.756;2022-10-22T10:50:21;29.40;1.00
3208;DHT22;1616;52.394;9.756;2022-10-22T10:53:12;28.40;1.00
3208;DHT22;1616;52.394;9.756;2022-10-22T10:55:56;27.60;1.00
3208;DHT22;1616;52.394;9.756;2022-10-22T10:58:40;26.80;1.00
3208;DHT22;1616;52.394;9.756;2022-10-22T11:01:18;26.20;1.00
3208;DHT22;1616;52.394;9.756;2022-10-22T11:04:27;26.00;1.00
3208;DHT22;1616;52.394;9.756;2022-10-22T11:07:02;25.60;1.00
3208;DHT22;1616;52.394;9.756;2022-10-22T11:09:35;25.30;1.00
3208;DHT22;1616;52.394;9.756;2022-10-22T11:12:32;25.00;1.00
3208;DHT22;1616;52.394;9.756;2022-10-22T11:15:42;24.70;1.00
3208;DHT22;1616;52.394;9.756;2022-10-22T11:17:48;24.30;1.00
3208;DHT22;1616;52.394;9.756;2022-10-22T11:20:22;23.90;1.00
3208;DHT22;1616;52.394;9.756;2022-10-22T11:22:56;23.60;1.00
3208;DHT22;1616;52.394;9.756;2022-10-22T11:25:27;23.40;1.00
3208;DHT22;1616;52.394;9.756;2022-10-22T11:30:22;23.50;1.00
3208;DHT22;1616;52.394;9.756;2022-10-22T11:32:57;23.50;1.00
3208;DHT22;1616;52.394;9.756;2022-10-22T11:35:33;23.40;1.00
3208;DHT22;1616;52.394;9.756;2022-10-22T11:38:00;23.70;1.00
3208;DHT22;1616;52.394;9.756;2022-10-22T11:40:39;24.50;1.00
3208;DHT22;1616;52.394;9.756;2022-10-22T11:43:10;25.50;1.00
3208;DHT22;1616;52.394;9.756;2022-10-22T11:45:38;26.50;1.00
3208;DHT22;1616;52.394;9.756;2022-10-22T11:50:55;28.50;1.00
3208;DHT22;1616;52.394;9.756;2022-10-22T11:56:40;29.40;1.00
3208;DHT22;1616;52.394;9.756;2022-10-22T11:58:42;29.60;1.00
3208;DHT22;1616;52.394;9.756;2022-10-22T12:03:44;28.20;1.00
3208;DHT22;1616;52.394;9.756;2022-10-22T12:14:32;26.90;1.00
3208;DHT22;1616;52.394;9.756;2022-10-22T12:17:15;26.80;1.00
3208;DHT22;1616;52.394;9.756;2022-10-22T12:20:06;26.80;1.00
3208;DHT22;1616;52.394;9.756;2022-10-22T12:22:36;26.50;1.00
3208;DHT22;1616;52.394;9.756;2022-10-22T12:25:28;26.20;1.00
3208;DHT22;1616;52.394;9.756;2022-10-22T12:27:55;26.10;1.00
3208;DHT22;1616;52.394;9.756;2022-10-22T12:30:27;25.80;1.00
3208;DHT22;1616;52.394;9.756;2022-10-22T12:32:58;25.70;1.00
3208;DHT22;1616;52.394;9.756;2022-10-22T12:35:30;25.30;1.00
3208;DHT22;1616;52.394;9.756;2022-10-22T12:37:59;25.00;1.00
3208;DHT22;1616;52.394;9.756;2022-10-22T12:40:32;24.50;1.00
3208;DHT22;1616;52.394;9.756;2022-10-22T12:43:45;24.20;1.00
3208;DHT22;1616;52.394;9.756;2022-10-22T12:45:47;23.80;1.00
3208;DHT22;1616;52.394;9.756;2022-10-22T12:48:21;23.50;1.00
3208;DHT22;1616;52.394;9.756;2022-10-22T12:50:51;23.30;1.00
3208;DHT22;1616;52.394;9.756;2022-10-22T12:53:26;23.00;1.00
3208;DHT22;1616;52.394;9.756;2022-10-22T12:55:55;22.80;1.00
3208;DHT22;1616;52.394;9.756;2022-10-22T12:58:28;22.70;1.00
3208;DHT22;1616;52.394;9.756;2022-10-22T13:00:58;22.70;1.00
3208;DHT22;1616;52.394;9.756;2022-10-22T13:03:34;22.70;1.00
3208;DHT22;1616;52.394;9.756;2022-10-22T13:08:38;22.80;1.00
3208;DHT22;1616;52.394;9.756;2022-10-22T13:11:10;22.80;1.00
3208;DHT22;1616;52.394;9.756;2022-10-22T13:16:22;22.70;1.00
3208;DHT22;1616;52.394;9.756;2022-10-22T13:18:50;22.60;1.00
3208;DHT22;1616;52.394;9.756;2022-10-22T13:21:23;22.50;1.00
3208;DHT22;1616;52.394;9.756;2022-10-22T13:24:16;22.30;1.00
3208;DHT22;1616;52.394;9.756;2022-10-22T13:26:38;22.10;1.00
3208;DHT22;1616;52.394;9.756;2022-10-22T13:29:10;22.00;1.00
3208;DHT22;1616;52.394;9.756;2022-10-22T13:31:44;21.80;1.00
3208;DHT22;1616;52.394;9.756;2022-10-22T13:34:14;21.60;1.00
3208;DHT22;1616;52.394;9.756;2022-10-22T13:36:41;21.50;1.00
3208;DHT22;1616;52.394;9.756;2022-10-22T13:39:15;21.20;1.00
3208;DHT22;1616;52.394;9.756;2022-10-22T13:41:42;20.90;1.00
3208;DHT22;1616;52.394;9.756;2022-10-22T13:44:08;20.70;1.00
3208;DHT22;1616;52.394;9.756;2022-10-22T13:46:33;20.40;1.00
3208;DHT22;1616;52.394;9.756;2022-10-22T13:49:05;20.30;1.00
3208;DHT22;1616;52.394;9.756;2022-10-22T13:51:33;20.30;1.00
3208;DHT22;1616;52.394;9.756;2022-10-22T13:54:02;20.40;1.00
3208;DHT22;1616;52.394;9.756;2022-10-22T13:56:31;20.40;1.00
3208;DHT22;1616;52.394;9.756;2022-10-22T13:58:56;20.50;1.00
3208;DHT22;1616;52.394;9.756;2022-10-22T14:01:24;20.50;1.00
3208;DHT22;1616;52.394;9.756;2022-10-22T14:03:54;20.50;1.00
3208;DHT22;1616;52.394;9.756;2022-10-22T14:06:21;20.40;1.00
3208;DHT22;1616;52.394;9.756;2022-10-22T14:08:48;20.40;1.00
3208;DHT22;1616;52.394;9.756;2022-10-22T14:11:16;20.30;1.00
3208;DHT22;1616;52.394;9.756;2022-10-22T14:13:42;20.30;1.00
3208;DHT22;1616;52.394;9.756;2022-10-22T14:16:15;20.30;1.00
3208;DHT22;1616;52.394;9.756;2022-10-22T14:18:42;20.30;1.00
3208;DHT22;1616;52.394;9.756;2022-10-22T14:21:10;20.30;1.00
3208;DHT22;1616;52.394;9.756;2022-10-22T14:23:39;20.30;1.00
3208;DHT22;1616;52.394;9.756;2022-10-22T14:26:05;20.30;1.00
3208;DHT22;1616;52.394;9.756;2022-10-22T14:28:33;20.20;1.00
3208;DHT22;1616;52.394;9.756;2022-10-22T14:30:59;20.20;1.00
3208;DHT22;1616;52.394;9.756;2022-10-22T14:33:31;20.10;1.00
3208;DHT22;1616;52.394;9.756;2022-10-22T14:35:59;20.00;1.00
3208;DHT22;1616;52.394;9.756;2022-10-22T14:38:25;20.00;1.00
3208;DHT22;1616;52.394;9.756;2022-10-22T14:40:51;19.90;1.00
3208;DHT22;1616;52.394;9.756;2022-10-22T14:43:25;19.90;1.00
3208;DHT22;1616;52.394;9.756;2022-10-22T14:45:51;19.90;1.00
3208;DHT22;1616;52.394;9.756;2022-10-22T14:48:17;19.90;1.00
3208;DHT22;1616;52.394;9.756;2022-10-22T14:50:43;19.90;1.00
3208;DHT22;1616;52.394;9.756;2022-10-22T14:53:10;19.90;1.00
3208;DHT22;1616;52.394;9.756;2022-10-22T14:55:35;19.90;1.00
3208;DHT22;1616;52.394;9.756;2022-10-22T14:58:01;19.90;1.00
3208;DHT22;1616;52.394;9.756;2022-10-22T15:00:27;19.90;1.00
3208;DHT22;1616;52.394;9.756;2022-10-22T15:02:53;19.80;1.00
3208;DHT22;1616;52.394;9.756;2022-10-22T15:05:21;19.80;1.00
3208;DHT22;1616;52.394;9.756;2022-10-22T15:07:47;19.80;1.00
3208;DHT22;1616;52.394;9.756;2022-10-22T15:10:13;19.70;1.00
3208;DHT22;1616;52.394;9.756;2022-10-22T15:12:39;19.70;1.00
3208;DHT22;1616;52.394;9.756;2022-10-22T15:15:05;19.60;1.00
3208;DHT22;1616;52.394;9.756;2022-10-22T15:17:31;19.60;1.00
3208;DHT22;1616;52.394;9.756;2022-10-22T15:19:57;19.50;1.00
3208;DHT22;1616;52.394;9.756;2022-10-22T15:22:25;19.50;1.00
3208;DHT22;1616;52.394;9.756;2022-10-22T15:24:52;19.60;1.00
3208;DHT22;1616;52.394;9.756;2022-10-22T15:27:18;19.50;1.00
3208;DHT22;1616;52.394;9.756;2022-10-22T15:29:44;19.50;1.00
3208;DHT22;1616;52.394;9.756;2022-10-22T15:32:10;19.50;1.00
3208;DHT22;1616;52.394;9.756;2022-10-22T15:34:37;19.50;1.00
3208;DHT22;1616;52.394;9.756;2022-10-22T15:37:09;19.40;1.00
3208;DHT22;1616;52.394;9.756;2022-10-22T15:39:37;19.50;1.00
3208;DHT22;1616;52.394;9.756;2022-10-22T15:42:03;19.50;1.00
3208;DHT22;1616;52.394;9.756;2022-10-22T15:44:30;19.50;1.00
3208;DHT22;1616;52.394;9.756;2022-10-22T15:46:57;19.40;1.00
3208;DHT22;1616;52.394;9.756;2022-10-22T15:49:24;19.30;1.00
3208;DHT22;1616;52.394;9.756;2022-10-22T15:51:50;19.30;1.00
3208;DHT22;1616;52.394;9.756;2022-10-22T15:54:19;19.20;1.00
3208;DHT22;1616;52.394;9.756;2022-10-22T15:56:45;19.20;1.00
3208;DHT22;1616;52.394;9.756;2022-10-22T15:59:13;19.10;1.00
3208;DHT22;1616;52.394;9.756;2022-10-22T16:01:39;19.10;1.00
3208;DHT22;1616;52.394;9.756;2022-10-22T16:04:05;19.00;1.00
3208;DHT22;1616;52.394;9.756;2022-10-22T16:06:35;19.00;1.00
3208;DHT22;1616;52.394;9.756;2022-10-22T16:09:04;19.00;1.00
3208;DHT22;1616;52.394;9.756;2022-10-22T16:11:31;19.00;1.00
3208;DHT22;1616;52.394;9.756;2022-10-22T16:13:58;19.00;1.00
3208;DHT22;1616;52.394;9.756;2022-10-22T16:16:26;18.90;1.00
3208;DHT22;1616;52.394;9.756;2022-10-22T16:18:52;18.90;1.00
3208;DHT22;1616;52.394;9.756;2022-10-22T16:21:20;18.80;1.00
3208;DHT22;1616;52.394;9.756;2022-10-22T16:23:47;18.80;1.00
3208;DHT22;1616;52.394;9.756;2022-10-22T16:26:14;18.70;1.00
3208;DHT22;1616;52.394;9.756;2022-10-22T16:28:41;18.70;1.00
3208;DHT22;1616;52.394;9.756;2022-10-22T16:31:10;18.70;1.00
3208;DHT22;1616;52.394;9.756;2022-10-22T16:33:36;18.60;1.00
3208;DHT22;1616;52.394;9.756;2022-10-22T16:36:04;18.50;1.00
3208;DHT22;1616;52.394;9.756;2022-10-22T16:38:30;18.40;1.00
3208;DHT22;1616;52.394;9.756;2022-10-22T16:41:13;18.30;1.00
3208;DHT22;1616;52.394;9.756;2022-10-22T16:43:43;18.10;1.00
3208;DHT22;1616;52.394;9.756;2022-10-22T16:46:10;18.10;1.00
3208;DHT22;1616;52.394;9.756;2022-10-22T16:48:36;18.00;1.00
3208;DHT22;1616;52.394;9.756;2022-10-22T16:51:07;17.90;1.00
3208;DHT22;1616;52.394;9.756;2022-10-22T16:53:33;17.80;1.00
3208;DHT22;1616;52.394;9.756;2022-10-22T16:55:59;17.70;1.00
3208;DHT22;1616;52.394;9.756;2022-10-22T16:58:24;17.60;1.00
3208;DHT22;1616;52.394;9.756;2022-10-22T17:00:51;17.50;1.00
3208;DHT22;1616;52.394;9.756;2022-10-22T17:03:17;17.50;1.00
3208;DHT22;1616;52.394;9.756;2022-10-22T17:05:43;17.50;1.00
3208;DHT22;1616;52.394;9.756;2022-10-22T17:08:08;17.40;1.00
3208;DHT22;1616;52.394;9.756;2022-10-22T17:10:36;17.30;1.00
3208;DHT22;1616;52.394;9.756;2022-10-22T17:13:04;17.30;1.00
3208;DHT22;1616;52.394;9.756;2022-10-22T17:15:30;17.20;1.00
3208;DHT22;1616;52.394;9.756;2022-10-22T17:17:59;17.10;1.00
3208;DHT22;1616;52.394;9.756;2022-10-22T17:20:25;17.00;1.00
3208;DHT22;1616;52.394;9.756;2022-10-22T17:22:50;17.00;1.00
3208;DHT22;1616;52.394;9.756;2022-10-22T17:25:40;16.90;1.00
3208;DHT22;1616;52.394;9.756;2022-10-22T17:28:07;16.90;1.00
3208;DHT22;1616;52.394;9.756;2022-10-22T17:30:33;16.80;1.00
3208;DHT22;1616;52.394;9.756;2022-10-22T17:33:07;16.80;1.00